Time;durP1;ratioP1;P1;durP2;ratioP2;P2;SDS_P1;SDS_P2;PMS_P1;PMS_P2;Temp;Humidity;BMP_temperature;BMP_pressure;BME280_temperature;BME280_humidity;BME280_pressure;Samples;Min_cycle;Max_cycle;Signal;HPM_P1;HPM_P2
2022/10/01 00:00:56;;;;;;;2.87;2.23;;;;;;;;;;5050907;28;20200;-45
2022/10/01 00:03:23;;;;;;;5.67;2.30;;;;;;;;;;5050866;28;20219;-45
2022/10/01 00:05:59;;;;;;;4.87;2.23;;;;;;;;;;5050340;28;20258;-46
2022/10/01 00:08:26;;;;;;;2.10;1.90;;;;;;;;;;5049609;28;20797;-45
2022/10/01 00:10:52;;;;;;;2.63;2.30;;;;;;;;;;5050872;28;20197;-45
2022/10/01 00:13:21;;;;;;;2.93;2.30;;;;;;;;;;5050182;28;20216;-46
2022/10/01 00:15:47;;;;;;;3.77;2.00;;;;;;;;;;5050819;28;20228;-46
2022/10/01 00:18:13;;;;;;;2.33;2.00;;;;;;;;;;5051056;28;20201;-46
2022/10/01 00:20:43;;;;;;;2.43;2.00;;;;;;;;;;5050844;28;20204;-46
2022/10/01 00:23:10;;;;;;;3.20;2.07;;;;;;;;;;5051089;28;20207;-46
2022/10/01 00:25:36;;;;;;;2.40;2.20;;;;;;;;;;5050613;28;20197;-46
2022/10/01 00:28:03;;;;;;;3.33;2.10;;;;;;;;;;5048810;28;20646;-46
2022/10/01 00:30:29;;;;;;;2.93;2.20;;;;;;;;;;5050634;28;20896;-46
2022/10/01 00:32:55;;;;;;;5.73;2.23;;;;;;;;;;5049903;28;20263;-46
2022/10/01 00:35:21;;;;;;;3.13;2.50;;;;;;;;;;5050550;28;20224;-46
2022/10/01 00:37:49;;;;;;;2.47;2.13;;;;;;;;;;5050852;28;20219;-45
2022/10/01 00:40:18;;;;;;;3.27;1.90;;;;;;;;;;5054219;28;20204;-44
2022/10/01 00:42:44;;;;;;;4.13;2.53;;;;;;;;;;5054269;28;20208;-45
2022/10/01 00:45:11;;;;;;;2.70;2.00;;;;;;;;;;5053602;28;20188;-45
2022/10/01 00:47:39;;;;;;;3.97;2.23;;;;;;;;;;5053893;28;20235;-44
2022/10/01 00:50:08;;;;;;;3.60;2.13;;;;;;;;;;5054155;28;20667;-45
2022/10/01 00:52:38;;;;;;;2.00;1.90;;;;;;;;;;5054041;28;20207;-45
2022/10/01 00:55:07;;;;;;;3.40;2.10;;;;;;;;;;5053579;28;20251;-46
2022/10/01 00:57:34;;;;;;;2.77;2.10;;;;;;;;;;5054157;28;20613;-46
2022/10/01 01:00:02;;;;;;;2.43;2.10;;;;;;;;;;5054041;28;20208;-45
2022/10/01 01:02:28;;;;;;;4.50;2.30;;;;;;;;;;5053969;28;20682;-46
2022/10/01 01:04:54;;;;;;;2.73;2.30;;;;;;;;;;5053889;28;20658;-50
2022/10/01 01:07:20;;;;;;;3.17;2.10;;;;;;;;;;5054276;28;20311;-46
2022/10/01 01:09:47;;;;;;;5.83;2.27;;;;;;;;;;5053775;28;20196;-46
2022/10/01 01:12:19;;;;;;;2.67;2.10;;;;;;;;;;5054071;28;20212;-46
2022/10/01 01:14:53;;;;;;;3.00;2.30;;;;;;;;;;5053723;28;20681;-46
2022/10/01 01:17:24;;;;;;;2.10;1.97;;;;;;;;;;5053766;28;20249;-46
2022/10/01 01:20:07;;;;;;;2.30;2.07;;;;;;;;;;5053047;28;20200;-47
2022/10/01 01:22:36;;;;;;;2.37;2.17;;;;;;;;;;5053873;28;20208;-46
2022/10/01 01:25:08;;;;;;;3.70;2.17;;;;;;;;;;5053774;28;20558;-46
2022/10/01 01:27:36;;;;;;;3.63;2.30;;;;;;;;;;5053330;28;20223;-47
2022/10/01 01:30:05;;;;;;;3.13;2.20;;;;;;;;;;5053987;28;20216;-46
2022/10/01 01:32:34;;;;;;;2.20;2.00;;;;;;;;;;5053051;28;20247;-46
2022/10/01 01:35:01;;;;;;;3.30;2.20;;;;;;;;;;5053363;28;20243;-44
2022/10/01 01:37:30;;;;;;;3.70;2.10;;;;;;;;;;5053473;28;20196;-44
2022/10/01 01:39:59;;;;;;;2.87;1.90;;;;;;;;;;5053291;28;20211;-45
2022/10/01 01:42:27;;;;;;;2.53;2.10;;;;;;;;;;5053162;28;20200;-45
2022/10/01 01:44:56;;;;;;;2.90;2.03;;;;;;;;;;5053283;28;20247;-45
2022/10/01 01:47:24;;;;;;;4.83;2.23;;;;;;;;;;5053212;28;20222;-45
2022/10/01 01:49:52;;;;;;;2.27;2.07;;;;;;;;;;5052491;28;20275;-46
2022/10/01 01:52:18;;;;;;;3.10;1.90;;;;;;;;;;5052807;28;20666;-45
2022/10/01 01:54:46;;;;;;;2.73;2.10;;;;;;;;;;5052588;28;20216;-45
2022/10/01 01:57:13;;;;;;;2.30;2.10;;;;;;;;;;5053109;28;20275;-45
2022/10/01 01:59:39;;;;;;;3.10;2.20;;;;;;;;;;5052822;28;20197;-45
2022/10/01 02:02:06;;;;;;;3.37;2.20;;;;;;;;;;5052993;28;20207;-45
2022/10/01 02:04:36;;;;;;;2.53;2.33;;;;;;;;;;5051789;28;20193;-45
2022/10/01 02:07:08;;;;;;;3.00;2.40;;;;;;;;;;5052914;28;20247;-46
2022/10/01 02:09:36;;;;;;;2.90;2.30;;;;;;;;;;5052761;28;20587;-46
2022/10/01 02:12:07;;;;;;;2.40;2.20;;;;;;;;;;5052654;28;20196;-45
2022/10/01 02:14:38;;;;;;;2.37;2.17;;;;;;;;;;5052694;28;20587;-45
2022/10/01 02:17:09;;;;;;;4.43;2.23;;;;;;;;;;5052872;28;20278;-46
2022/10/01 02:19:43;;;;;;;3.93;2.30;;;;;;;;;;5052437;28;20611;-45
2022/10/01 02:22:11;;;;;;;4.40;2.50;;;;;;;;;;5051441;28;20200;-45
2022/10/01 02:24:39;;;;;;;3.43;2.10;;;;;;;;;;5052483;28;20196;-46
2022/10/01 02:27:08;;;;;;;3.20;2.40;;;;;;;;;;5052350;28;20223;-45
2022/10/01 02:29:35;;;;;;;3.20;2.10;;;;;;;;;;5052393;28;20200;-45
2022/10/01 02:32:01;;;;;;;4.37;2.30;;;;;;;;;;5051952;28;20240;-45
2022/10/01 02:34:29;;;;;;;4.60;2.50;;;;;;;;;;5052116;28;20224;-45
2022/10/01 02:36:57;;;;;;;2.93;2.20;;;;;;;;;;5052245;28;20200;-45
2022/10/01 02:39:27;;;;;;;3.67;2.50;;;;;;;;;;5052083;28;20200;-45
2022/10/01 02:41:53;;;;;;;5.43;3.13;;;;;;;;;;5051988;28;20250;-44
2022/10/01 02:44:21;;;;;;;2.63;2.40;;;;;;;;;;5051973;28;20203;-44
2022/10/01 02:46:50;;;;;;;2.97;2.50;;;;;;;;;;5051911;28;20210;-45
2022/10/01 02:49:16;;;;;;;2.60;2.07;;;;;;;;;;5052007;28;20246;-45
2022/10/01 02:51:45;;;;;;;2.53;2.33;;;;;;;;;;5051943;28;20235;-46
2022/10/01 02:54:15;;;;;;;2.40;2.20;;;;;;;;;;5052070;28;20204;-46
2022/10/01 02:59:26;;;;;;;3.00;2.27;;;;;;;;;;5051749;28;20207;-45
2022/10/01 03:01:52;;;;;;;3.30;2.07;;;;;;;;;;5051469;28;20204;-46
2022/10/01 03:04:18;;;;;;;2.73;2.30;;;;;;;;;;5051848;28;20279;-45
2022/10/01 03:06:45;;;;;;;3.13;2.20;;;;;;;;;;5051493;28;20587;-46
2022/10/01 03:09:11;;;;;;;3.73;2.20;;;;;;;;;;5051565;28;20218;-45
2022/10/01 03:11:38;;;;;;;3.00;2.30;;;;;;;;;;5051780;28;20623;-45
2022/10/01 03:14:05;;;;;;;3.47;2.43;;;;;;;;;;5051327;28;20198;-45
2022/10/01 03:16:31;;;;;;;4.23;2.23;;;;;;;;;;5051265;28;20200;-45
2022/10/01 03:18:58;;;;;;;3.07;2.30;;;;;;;;;;5050681;28;20204;-44
2022/10/01 03:21:24;;;;;;;3.03;2.40;;;;;;;;;;5051555;28;20211;-44
2022/10/01 03:23:50;;;;;;;6.13;2.27;;;;;;;;;;5050796;28;20279;-45
2022/10/01 03:26:16;;;;;;;2.73;2.27;;;;;;;;;;5051296;28;20263;-45
2022/10/01 03:28:43;;;;;;;2.53;2.30;;;;;;;;;;5051312;28;20677;-45
2022/10/01 03:31:09;;;;;;;3.60;2.60;;;;;;;;;;5050916;28;20327;-45
2022/10/01 03:33:36;;;;;;;4.13;2.47;;;;;;;;;;5050626;28;20298;-45
2022/10/01 03:36:02;;;;;;;3.70;2.70;;;;;;;;;;5051243;28;20279;-46
2022/10/01 03:38:28;;;;;;;3.33;2.67;;;;;;;;;;5051366;28;20666;-45
2022/10/01 03:40:54;;;;;;;3.13;2.77;;;;;;;;;;5051177;28;20232;-45
2022/10/01 03:43:20;;;;;;;5.03;2.77;;;;;;;;;;5051138;28;20228;-45
2022/10/01 03:45:48;;;;;;;2.80;2.50;;;;;;;;;;5051199;28;20208;-43
2022/10/01 03:48:14;;;;;;;2.83;2.63;;;;;;;;;;5050884;28;20251;-44
2022/10/01 03:50:40;;;;;;;4.30;2.77;;;;;;;;;;5050781;28;20291;-44
2022/10/01 03:53:06;;;;;;;3.07;2.70;;;;;;;;;;5050374;28;20203;-45
2022/10/01 03:55:32;;;;;;;5.17;2.30;;;;;;;;;;5051150;28;20601;-45
2022/10/01 03:57:58;;;;;;;4.03;2.80;;;;;;;;;;5051218;28;20203;-45
2022/10/01 04:00:24;;;;;;;4.43;3.17;;;;;;;;;;5051283;28;20622;-44
2022/10/01 04:02:52;;;;;;;4.57;2.73;;;;;;;;;;5051006;28;20705;-45
2022/10/01 04:05:18;;;;;;;4.73;3.23;;;;;;;;;;5051014;28;20611;-45
2022/10/01 04:07:44;;;;;;;4.90;3.17;;;;;;;;;;5050836;28;20621;-45
2022/10/01 04:10:10;;;;;;;3.60;3.30;;;;;;;;;;5051069;28;20203;-45
2022/10/01 04:12:37;;;;;;;3.13;2.83;;;;;;;;;;5050968;28;20203;-45
2022/10/01 04:15:03;;;;;;;3.50;3.20;;;;;;;;;;5053911;28;20228;-45
2022/10/01 04:17:29;;;;;;;5.10;3.30;;;;;;;;;;5054724;28;20670;-45
2022/10/01 04:19:59;;;;;;;6.97;3.60;;;;;;;;;;5054720;28;20209;-45
2022/10/01 04:22:25;;;;;;;3.83;3.53;;;;;;;;;;5054507;28;20283;-45
2022/10/01 04:24:52;;;;;;;5.87;3.67;;;;;;;;;;5054625;28;20197;-45
2022/10/01 04:27:18;;;;;;;7.00;4.50;;;;;;;;;;5054431;28;20215;-45
2022/10/01 04:29:44;;;;;;;4.20;3.80;;;;;;;;;;5054462;28;20200;-45
2022/10/01 04:32:10;;;;;;;5.70;4.57;;;;;;;;;;5054495;28;20235;-45
2022/10/01 04:34:51;;;;;;;6.23;4.67;;;;;;;;;;5054317;28;20223;-45
2022/10/01 04:37:19;;;;;;;7.47;4.47;;;;;;;;;;5054147;28;20601;-45
2022/10/01 04:39:45;;;;;;;6.03;4.10;;;;;;;;;;5054407;28;20738;-45
2022/10/01 04:42:13;;;;;;;4.50;4.10;;;;;;;;;;5054324;28;20302;-44
2022/10/01 04:44:40;;;;;;;4.80;4.30;;;;;;;;;;5054307;28;20203;-45
2022/10/01 04:47:06;;;;;;;4.97;4.40;;;;;;;;;;5053568;28;20296;-45
2022/10/01 04:49:32;;;;;;;5.23;4.50;;;;;;;;;;5053818;28;20196;-45
2022/10/01 04:51:59;;;;;;;5.67;4.40;;;;;;;;;;5053366;28;20212;-46
2022/10/01 04:54:26;;;;;;;6.03;4.90;;;;;;;;;;5053232;28;20227;-45
2022/10/01 04:56:53;;;;;;;5.30;4.80;;;;;;;;;;5053190;28;20203;-45
2022/10/01 04:59:19;;;;;;;6.50;5.10;;;;;;;;;;5054146;28;20276;-45
2022/10/01 05:01:45;;;;;;;7.47;5.17;;;;;;;;;;5053692;28;20307;-46
2022/10/01 05:04:11;;;;;;;7.13;5.20;;;;;;;;;;5054008;28;20196;-45
2022/10/01 05:06:38;;;;;;;5.83;5.27;;;;;;;;;;5053913;28;20227;-45
2022/10/01 05:09:04;;;;;;;5.70;5.20;;;;;;;;;;5053898;28;20299;-46
2022/10/01 05:11:30;;;;;;;5.90;5.37;;;;;;;;;;5053824;28;20197;-46
2022/10/01 05:13:57;;;;;;;6.17;5.13;;;;;;;;;;5053544;28;20223;-45
2022/10/01 05:16:23;;;;;;;5.33;4.87;;;;;;;;;;5053388;28;20798;-45
2022/10/01 05:18:49;;;;;;;5.97;4.53;;;;;;;;;;5044055;28;20201;-45
2022/10/01 05:21:15;;;;;;;7.10;5.43;;;;;;;;;;5053539;28;20716;-46
2022/10/01 05:23:41;;;;;;;6.90;4.73;;;;;;;;;;5051496;28;20207;-45
2022/10/01 05:26:07;;;;;;;7.47;5.27;;;;;;;;;;5049388;28;20188;-45
2022/10/01 05:28:34;;;;;;;7.33;5.27;;;;;;;;;;5052911;28;20300;-45
2022/10/01 05:31:02;;;;;;;5.33;4.83;;;;;;;;;;5053267;28;20192;-46
2022/10/01 05:33:28;;;;;;;5.17;4.67;;;;;;;;;;5053408;28;20236;-46
2022/10/01 05:35:55;;;;;;;4.93;4.43;;;;;;;;;;5052609;28;20238;-45
2022/10/01 05:38:21;;;;;;;5.60;4.70;;;;;;;;;;5053453;28;20196;-45
2022/10/01 05:40:47;;;;;;;5.13;4.63;;;;;;;;;;5052951;28;20203;-44
2022/10/01 05:43:13;;;;;;;8.17;4.50;;;;;;;;;;5053412;28;20287;-45
2022/10/01 05:45:40;;;;;;;4.97;4.20;;;;;;;;;;5053085;28;20242;-45
2022/10/01 05:48:08;;;;;;;5.50;4.53;;;;;;;;;;5052763;28;20195;-45
2022/10/01 05:50:38;;;;;;;4.50;4.10;;;;;;;;;;5052242;28;20227;-45
2022/10/01 05:53:05;;;;;;;4.70;4.30;;;;;;;;;;5051638;28;20204;-45
2022/10/01 05:55:33;;;;;;;4.83;4.43;;;;;;;;;;5052430;28;20302;-46
2022/10/01 05:58:00;;;;;;;5.30;4.00;;;;;;;;;;5052005;28;20208;-46
2022/10/01 06:00:27;;;;;;;4.13;3.80;;;;;;;;;;5052780;28;20196;-46
2022/10/01 06:02:54;;;;;;;5.93;3.80;;;;;;;;;;5052230;28;20262;-46
2022/10/01 06:05:21;;;;;;;4.40;4.00;;;;;;;;;;5052512;28;20193;-46
2022/10/01 06:07:47;;;;;;;5.50;3.83;;;;;;;;;;5052503;28;20246;-45
2022/10/01 06:10:14;;;;;;;4.60;3.67;;;;;;;;;;5052722;28;20211;-44
2022/10/01 06:12:40;;;;;;;4.40;4.00;;;;;;;;;;5052551;28;20280;-45
2022/10/01 06:15:07;;;;;;;4.30;3.80;;;;;;;;;;5052467;28;20228;-44
2022/10/01 06:17:33;;;;;;;4.43;3.70;;;;;;;;;;5052230;28;20192;-45
2022/10/01 06:19:59;;;;;;;5.07;3.50;;;;;;;;;;5052297;28;20259;-45
2022/10/01 06:22:27;;;;;;;4.17;3.70;;;;;;;;;;5052270;28;20208;-45
2022/10/01 06:24:53;;;;;;;3.70;3.10;;;;;;;;;;5051966;28;20695;-44
2022/10/01 06:27:19;;;;;;;4.77;3.50;;;;;;;;;;5052425;28;20204;-45
2022/10/01 06:29:45;;;;;;;3.80;3.50;;;;;;;;;;5052196;28;20238;-44
2022/10/01 06:32:17;;;;;;;5.23;3.00;;;;;;;;;;5051817;28;20239;-44
2022/10/01 06:34:43;;;;;;;3.40;3.10;;;;;;;;;;5050838;28;20220;-45
2022/10/01 06:37:09;;;;;;;3.60;3.30;;;;;;;;;;5052273;28;20196;-44
2022/10/01 06:39:36;;;;;;;4.27;3.87;;;;;;;;;;5052720;28;20233;-45
2022/10/01 06:42:02;;;;;;;3.43;3.13;;;;;;;;;;5052344;28;20745;-45
2022/10/01 06:44:28;;;;;;;3.00;2.80;;;;;;;;;;5052455;28;20290;-45
2022/10/01 06:46:54;;;;;;;4.23;3.50;;;;;;;;;;5052375;28;20240;-47
2022/10/01 06:49:21;;;;;;;3.53;3.23;;;;;;;;;;5052447;28;20196;-44
2022/10/01 06:54:32;;;;;;;3.37;3.13;;;;;;;;;;5052364;28;20242;-46
2022/10/01 06:56:59;;;;;;;4.10;3.30;;;;;;;;;;5052303;28;20207;-46
2022/10/01 06:59:25;;;;;;;4.30;3.90;;;;;;;;;;5052197;28;20205;-45
2022/10/01 07:01:52;;;;;;;4.27;3.27;;;;;;;;;;5051716;28;20558;-44
2022/10/01 07:04:18;;;;;;;3.50;3.17;;;;;;;;;;5052059;28;20674;-45
2022/10/01 07:06:44;;;;;;;4.10;3.70;;;;;;;;;;5051964;28;20291;-44
2022/10/01 07:09:10;;;;;;;3.03;2.83;;;;;;;;;;5051798;28;20303;-46
2022/10/01 07:11:40;;;;;;;3.80;3.37;;;;;;;;;;5051967;28;20207;-45
2022/10/01 07:14:07;;;;;;;3.40;3.10;;;;;;;;;;5051579;28;20216;-46
2022/10/01 07:16:33;;;;;;;6.37;3.60;;;;;;;;;;5051837;28;20230;-45
2022/10/01 07:18:59;;;;;;;3.70;3.40;;;;;;;;;;5051453;28;20566;-45
2022/10/01 07:21:25;;;;;;;3.33;3.00;;;;;;;;;;5051782;28;20678;-45
2022/10/01 07:23:51;;;;;;;4.13;3.30;;;;;;;;;;5051607;28;20198;-46
2022/10/01 07:26:17;;;;;;;4.20;3.77;;;;;;;;;;5051868;28;20223;-45
2022/10/01 07:28:43;;;;;;;3.93;2.90;;;;;;;;;;5051740;28;20258;-46
2022/10/01 07:31:11;;;;;;;3.23;2.93;;;;;;;;;;5051610;28;20294;-45
2022/10/01 07:33:37;;;;;;;2.90;2.70;;;;;;;;;;5051879;28;20211;-46
2022/10/01 07:36:04;;;;;;;3.23;2.63;;;;;;;;;;5051497;28;20236;-46
2022/10/01 07:38:32;;;;;;;3.87;2.90;;;;;;;;;;5051663;28;20246;-44
2022/10/01 07:40:58;;;;;;;3.60;3.00;;;;;;;;;;5051483;28;20204;-44
2022/10/01 07:43:24;;;;;;;3.17;2.90;;;;;;;;;;5051582;28;20199;-45
2022/10/01 07:45:53;;;;;;;3.30;3.00;;;;;;;;;;5051412;28;20203;-45
2022/10/01 07:48:21;;;;;;;4.07;2.57;;;;;;;;;;5051887;28;20250;-46
2022/10/01 07:50:47;;;;;;;2.80;2.60;;;;;;;;;;5055502;28;20677;-45
2022/10/01 07:53:13;;;;;;;3.20;2.67;;;;;;;;;;5055579;28;20239;-46
2022/10/01 07:55:39;;;;;;;2.70;2.50;;;;;;;;;;5055557;28;20228;-46
2022/10/01 07:58:05;;;;;;;2.80;2.60;;;;;;;;;;5055420;28;20576;-45
2022/10/01 08:00:32;;;;;;;3.33;2.80;;;;;;;;;;5055445;28;20196;-46
2022/10/01 08:02:58;;;;;;;2.80;2.60;;;;;;;;;;5055200;28;20571;-46
2022/10/01 08:05:27;;;;;;;2.70;2.50;;;;;;;;;;5055336;28;20203;-46
2022/10/01 08:07:57;;;;;;;2.87;2.60;;;;;;;;;;5055197;28;20228;-45
2022/10/01 08:10:23;;;;;;;5.03;3.30;;;;;;;;;;5055322;28;20215;-45
2022/10/01 08:12:49;;;;;;;4.37;3.97;;;;;;;;;;5055137;28;20196;-45
2022/10/01 08:15:16;;;;;;;2.83;2.63;;;;;;;;;;5055153;28;20315;-45
2022/10/01 08:17:43;;;;;;;3.80;3.50;;;;;;;;;;5055094;28;20203;-45
2022/10/01 08:20:10;;;;;;;4.20;3.80;;;;;;;;;;5055011;28;20192;-45
2022/10/01 08:22:38;;;;;;;3.77;3.10;;;;;;;;;;5055070;28;20603;-45
2022/10/01 08:25:04;;;;;;;3.77;3.47;;;;;;;;;;5054938;28;20275;-45
2022/10/01 08:27:30;;;;;;;3.27;2.97;;;;;;;;;;5054922;28;20196;-45
2022/10/01 08:29:56;;;;;;;3.70;3.40;;;;;;;;;;5054790;28;20196;-45
2022/10/01 08:32:24;;;;;;;5.07;4.00;;;;;;;;;;5054604;28;20274;-45
2022/10/01 08:34:51;;;;;;;3.17;2.87;;;;;;;;;;5054724;28;20278;-45
2022/10/01 08:37:17;;;;;;;3.33;3.13;;;;;;;;;;5054857;28;20200;-45
2022/10/01 08:39:45;;;;;;;2.97;2.40;;;;;;;;;;5054653;28;20199;-45
2022/10/01 08:42:21;;;;;;;2.50;2.30;;;;;;;;;;5054710;28;20275;-46
2022/10/01 08:44:48;;;;;;;3.03;2.47;;;;;;;;;;5054625;28;20192;-44
2022/10/01 08:47:18;;;;;;;2.80;2.60;;;;;;;;;;5054673;28;20686;-45
2022/10/01 08:49:47;;;;;;;2.67;2.47;;;;;;;;;;5054754;28;20200;-46
2022/10/01 08:52:17;;;;;;;2.50;2.30;;;;;;;;;;5054442;28;20204;-45
2022/10/01 08:54:45;;;;;;;3.53;2.80;;;;;;;;;;5054426;28;20294;-45
2022/10/01 08:57:14;;;;;;;4.43;3.00;;;;;;;;;;5054471;28;20234;-45
2022/10/01 08:59:41;;;;;;;3.27;2.97;;;;;;;;;;5054146;28;20208;-45
2022/10/01 09:02:17;;;;;;;3.70;3.40;;;;;;;;;;5054055;28;20243;-45
2022/10/01 09:04:43;;;;;;;3.03;2.73;;;;;;;;;;5054643;28;20282;-45
2022/10/01 09:07:12;;;;;;;3.20;2.90;;;;;;;;;;5054213;28;20230;-45
2022/10/01 09:09:44;;;;;;;3.43;2.90;;;;;;;;;;5054245;28;20685;-45
2022/10/01 09:12:19;;;;;;;3.30;3.00;;;;;;;;;;5054192;28;20304;-45
2022/10/01 09:14:55;;;;;;;3.27;2.97;;;;;;;;;;5054106;28;20211;-45
2022/10/01 09:17:29;;;;;;;3.47;3.17;;;;;;;;;;5054020;28;20196;-45
2022/10/01 09:19:59;;;;;;;5.20;3.20;;;;;;;;;;5054066;28;20196;-45
2022/10/01 09:22:30;;;;;;;4.00;3.60;;;;;;;;;;5053968;28;20662;-45
2022/10/01 09:24:58;;;;;;;3.63;3.40;;;;;;;;;;5053936;28;20224;-45
2022/10/01 09:27:27;;;;;;;3.93;3.63;;;;;;;;;;5054004;28;20236;-44
2022/10/01 09:29:54;;;;;;;5.70;3.60;;;;;;;;;;5053669;28;20200;-45
2022/10/01 09:32:22;;;;;;;3.90;3.53;;;;;;;;;;5053479;28;20232;-45
2022/10/01 09:34:49;;;;;;;3.83;3.53;;;;;;;;;;5053564;28;20295;-45
2022/10/01 09:37:21;;;;;;;4.80;4.13;;;;;;;;;;5053532;28;20208;-45
2022/10/01 09:39:52;;;;;;;4.37;3.87;;;;;;;;;;5053669;28;20200;-45
2022/10/01 09:42:18;;;;;;;4.20;3.90;;;;;;;;;;5053715;28;20196;-46
2022/10/01 09:44:46;;;;;;;5.20;4.30;;;;;;;;;;5053383;28;20204;-46
2022/10/01 09:47:16;;;;;;;4.90;4.40;;;;;;;;;;5053141;28;20220;-45
2022/10/01 09:49:45;;;;;;;3.77;3.47;;;;;;;;;;5053437;28;20246;-46
2022/10/01 09:52:14;;;;;;;4.13;3.80;;;;;;;;;;5053329;28;20683;-45
2022/10/01 09:54:42;;;;;;;4.60;3.77;;;;;;;;;;5053134;28;20196;-46
2022/10/01 09:57:09;;;;;;;3.87;3.67;;;;;;;;;;5053248;28;20201;-46
2022/10/01 09:59:40;;;;;;;3.80;3.50;;;;;;;;;;5053155;28;20223;-45
2022/10/01 10:02:13;;;;;;;5.00;3.70;;;;;;;;;;5053134;28;20243;-46
2022/10/01 10:04:40;;;;;;;5.40;3.93;;;;;;;;;;5053056;28;20733;-46
2022/10/01 10:07:06;;;;;;;3.90;3.60;;;;;;;;;;5052985;28;20700;-46
2022/10/01 10:09:34;;;;;;;3.53;3.23;;;;;;;;;;5053147;28;20203;-46
2022/10/01 10:12:01;;;;;;;3.60;3.27;;;;;;;;;;5052291;28;20200;-45
2022/10/01 10:14:29;;;;;;;3.93;3.60;;;;;;;;;;5052926;28;20654;-46
2022/10/01 10:16:56;;;;;;;3.80;3.50;;;;;;;;;;5052748;28;20219;-45
2022/10/01 10:19:25;;;;;;;4.00;3.60;;;;;;;;;;5052985;28;20196;-46
2022/10/01 10:21:53;;;;;;;5.07;4.07;;;;;;;;;;5052896;28;20206;-46
2022/10/01 10:24:23;;;;;;;4.00;3.70;;;;;;;;;;5052735;28;20844;-45
2022/10/01 10:26:53;;;;;;;4.20;3.80;;;;;;;;;;5052648;28;20200;-46
2022/10/01 10:29:24;;;;;;;4.13;3.80;;;;;;;;;;5052595;28;20204;-46
2022/10/01 10:31:50;;;;;;;3.83;3.53;;;;;;;;;;5052364;28;20235;-46
2022/10/01 10:34:18;;;;;;;3.90;3.60;;;;;;;;;;5034773;28;20200;-46
2022/10/01 10:36:46;;;;;;;3.80;3.50;;;;;;;;;;5052646;28;20220;-47
2022/10/01 10:39:17;;;;;;;4.07;3.63;;;;;;;;;;5052504;28;20271;-47
2022/10/01 10:41:44;;;;;;;4.00;3.60;;;;;;;;;;5052374;28;20659;-46
2022/10/01 10:44:15;;;;;;;4.10;3.70;;;;;;;;;;5052389;28;20567;-47
2022/10/01 10:46:43;;;;;;;4.60;4.20;;;;;;;;;;5052364;28;20208;-46
2022/10/01 10:49:20;;;;;;;4.67;4.20;;;;;;;;;;5052169;28;20566;-46
2022/10/01 10:51:50;;;;;;;4.90;4.33;;;;;;;;;;5052353;28;20195;-45
2022/10/01 10:54:20;;;;;;;4.53;4.17;;;;;;;;;;5052106;28;20200;-46
2022/10/01 10:56:53;;;;;;;5.30;4.10;;;;;;;;;;5052139;28;20255;-46
2022/10/01 10:59:19;;;;;;;4.50;4.10;;;;;;;;;;5052439;28;20200;-46
2022/10/01 11:01:46;;;;;;;4.20;3.90;;;;;;;;;;5051999;28;20283;-45
2022/10/01 11:04:19;;;;;;;5.30;4.20;;;;;;;;;;5051870;28;20250;-46
2022/10/01 11:06:54;;;;;;;4.90;4.47;;;;;;;;;;5051978;28;20610;-46
2022/10/01 11:09:22;;;;;;;6.13;4.63;;;;;;;;;;5052022;28;20227;-46
2022/10/01 11:11:52;;;;;;;4.80;4.40;;;;;;;;;;5051923;28;20531;-47
2022/10/01 11:14:25;;;;;;;9.17;4.63;;;;;;;;;;5052017;28;20231;-46
2022/10/01 11:16:59;;;;;;;5.50;5.00;;;;;;;;;;5051617;28;20228;-46
2022/10/01 11:19:33;;;;;;;6.60;4.30;;;;;;;;;;5051914;28;20204;-46
2022/10/01 11:22:17;;;;;;;4.30;3.63;;;;;;;;;;5051730;28;20242;-45
2022/10/01 11:24:51;;;;;;;3.83;3.43;;;;;;;;;;5050734;28;20301;-45
2022/10/01 11:27:21;;;;;;;4.20;2.80;;;;;;;;;;5051875;28;20196;-46
2022/10/01 11:29:51;;;;;;;3.47;3.00;;;;;;;;;;5052563;28;20547;-46
2022/10/01 11:32:21;;;;;;;5.80;3.20;;;;;;;;;;5051265;28;20243;-46
2022/10/01 11:34:54;;;;;;;5.10;3.10;;;;;;;;;;5051521;28;20210;-46
2022/10/01 11:37:27;;;;;;;6.10;2.40;;;;;;;;;;5051587;28;20267;-47
2022/10/01 11:39:56;;;;;;;5.43;2.33;;;;;;;;;;5051666;28;20192;-46
2022/10/01 11:42:26;;;;;;;4.23;2.00;;;;;;;;;;5051545;28;20200;-46
2022/10/01 11:44:56;;;;;;;3.10;2.10;;;;;;;;;;5051572;28;20740;-46
2022/10/01 11:47:25;;;;;;;2.60;1.97;;;;;;;;;;5051530;28;20210;-46
2022/10/01 11:49:54;;;;;;;3.23;1.83;;;;;;;;;;5051752;28;20196;-46
2022/10/01 11:52:24;;;;;;;4.07;2.10;;;;;;;;;;5051587;28;20667;-46
2022/10/01 11:58:49;;;;;;;6.60;2.03;;;;;;;;;;5051424;28;20200;-46
2022/10/01 12:00:34;;;;;;;3.03;1.60;;;;;;;;;;5051784;28;20196;-46
2022/10/01 12:03:01;;;;;;;2.63;1.50;;;;;;;;;;5051454;28;20198;-46
2022/10/01 12:05:30;;;;;;;3.97;1.90;;;;;;;;;;5051436;28;20190;-46
2022/10/01 12:07:58;;;;;;;6.53;2.10;;;;;;;;;;5051547;28;20236;-46
2022/10/01 12:10:33;;;;;;;5.93;1.90;;;;;;;;;;5051353;28;20200;-46
2022/10/01 12:13:03;;;;;;;3.63;1.70;;;;;;;;;;5051305;28;20261;-47
2022/10/01 12:15:30;;;;;;;4.80;1.90;;;;;;;;;;5050982;28;20233;-46
2022/10/01 12:17:59;;;;;;;5.97;1.77;;;;;;;;;;5051305;28;20206;-47
2022/10/01 12:20:30;;;;;;;4.27;1.73;;;;;;;;;;5051384;28;20200;-47
2022/10/01 12:22:57;;;;;;;6.10;1.73;;;;;;;;;;5051204;28;20201;-47
2022/10/01 12:25:28;;;;;;;3.03;1.63;;;;;;;;;;5051443;28;20215;-47
2022/10/01 12:28:00;;;;;;;3.90;1.67;;;;;;;;;;5051122;28;20205;-47
2022/10/01 12:30:28;;;;;;;4.97;1.60;;;;;;;;;;5051102;28;20221;-47
2022/10/01 12:33:03;;;;;;;3.67;2.07;;;;;;;;;;5050942;28;20338;-46
2022/10/01 12:35:39;;;;;;;4.93;1.90;;;;;;;;;;5053103;28;20225;-46
2022/10/01 12:38:12;;;;;;;4.50;2.10;;;;;;;;;;5054646;28;20208;-46
2022/10/01 12:40:43;;;;;;;4.40;1.90;;;;;;;;;;5054992;28;20288;-46
2022/10/01 12:43:26;;;;;;;5.77;1.90;;;;;;;;;;5054533;28;20793;-47
2022/10/01 12:45:55;;;;;;;4.20;2.40;;;;;;;;;;5054508;28;20253;-45
2022/10/01 12:48:24;;;;;;;5.90;1.93;;;;;;;;;;5054748;28;20308;-45
2022/10/01 12:50:53;;;;;;;2.20;1.37;;;;;;;;;;5054520;28;20206;-45
2022/10/01 12:53:29;;;;;;;3.03;1.63;;;;;;;;;;5054499;28;20297;-45
2022/10/01 12:56:03;;;;;;;4.93;1.90;;;;;;;;;;5054426;28;20645;-46
2022/10/01 12:58:44;;;;;;;4.17;2.13;;;;;;;;;;5054463;28;20253;-46
2022/10/01 13:01:16;;;;;;;3.83;1.90;;;;;;;;;;5037477;28;20209;-46
2022/10/01 13:03:58;;;;;;;5.33;1.77;;;;;;;;;;5054439;28;20229;-46
2022/10/01 13:06:32;;;;;;;4.50;1.80;;;;;;;;;;5054213;28;20189;-45
2022/10/01 13:09:02;;;;;;;3.77;1.70;;;;;;;;;;5054066;28;20275;-45
2022/10/01 13:11:39;;;;;;;3.37;1.70;;;;;;;;;;5036225;28;20200;-45
2022/10/01 13:14:11;;;;;;;5.27;2.10;;;;;;;;;;5054390;28;20196;-45
2022/10/01 13:16:40;;;;;;;5.90;1.87;;;;;;;;;;5053753;28;20283;-46
2022/10/01 13:19:11;;;;;;;6.00;1.80;;;;;;;;;;5053398;28;20208;-46
2022/10/01 13:21:45;;;;;;;4.10;1.90;;;;;;;;;;5050273;28;20243;-46
2022/10/01 13:24:14;;;;;;;3.37;1.80;;;;;;;;;;5052841;28;20737;-46
2022/10/01 13:26:42;;;;;;;3.20;1.77;;;;;;;;;;5053501;28;20192;-47
2022/10/01 13:29:18;;;;;;;4.30;1.50;;;;;;;;;;5053205;28;20703;-46
2022/10/01 13:31:56;;;;;;;4.60;1.70;;;;;;;;;;5053026;28;20275;-45
2022/10/01 13:34:24;;;;;;;4.43;1.33;;;;;;;;;;5053033;28;20208;-45
2022/10/01 13:36:50;;;;;;;2.97;1.50;;;;;;;;;;5053214;28;20224;-45
2022/10/01 13:39:20;;;;;;;2.63;1.27;;;;;;;;;;5052628;28;20298;-45
2022/10/01 13:41:46;;;;;;;4.23;1.70;;;;;;;;;;5035293;28;20451;-45
2022/10/01 13:44:20;;;;;;;2.77;1.60;;;;;;;;;;5052926;28;20247;-46
2022/10/01 13:46:50;;;;;;;2.87;1.70;;;;;;;;;;5052027;28;20216;-46
2022/10/01 13:49:20;;;;;;;2.53;1.70;;;;;;;;;;5052796;28;20204;-46
2022/10/01 13:51:46;;;;;;;5.37;1.40;;;;;;;;;;5053341;28;20212;-46
2022/10/01 13:54:19;;;;;;;4.63;1.60;;;;;;;;;;5052613;28;20211;-46
2022/10/01 13:56:45;;;;;;;3.23;1.50;;;;;;;;;;5052038;28;20311;-46
2022/10/01 13:59:26;;;;;;;3.23;1.67;;;;;;;;;;5052797;28;20200;-46
2022/10/01 14:01:52;;;;;;;3.47;1.80;;;;;;;;;;5052972;28;20569;-48
2022/10/01 14:04:23;;;;;;;3.90;1.70;;;;;;;;;;5052772;28;20296;-47
2022/10/01 14:06:52;;;;;;;2.60;1.60;;;;;;;;;;5052520;28;20200;-48
2022/10/01 14:09:19;;;;;;;3.67;2.07;;;;;;;;;;5052720;28;20215;-47
2022/10/01 14:17:21;;;;;;;3.70;1.70;;;;;;;;;;5052311;28;20207;-47
2022/10/01 14:19:52;;;;;;;3.20;1.47;;;;;;;;;;5051947;28;20658;-46
2022/10/01 14:22:25;;;;;;;1.80;1.43;;;;;;;;;;5052331;28;20254;-47
2022/10/01 14:25:05;;;;;;;2.50;1.10;;;;;;;;;;5052389;28;20303;-45
2022/10/01 14:27:32;;;;;;;2.90;1.10;;;;;;;;;;5052451;28;20196;-45
2022/10/01 14:30:02;;;;;;;1.73;1.00;;;;;;;;;;5052541;28;20673;-45
2022/10/01 14:32:32;;;;;;;2.50;1.20;;;;;;;;;;5051282;28;20384;-45
2022/10/01 14:35:08;;;;;;;1.10;1.07;;;;;;;;;;5051943;28;20204;-45
2022/10/01 14:37:37;;;;;;;2.40;1.30;;;;;;;;;;5052140;28;20667;-45
2022/10/01 14:40:12;;;;;;;2.73;1.40;;;;;;;;;;5051857;28;20279;-46
2022/10/01 14:42:38;;;;;;;1.30;1.20;;;;;;;;;;5051984;28;20191;-46
2022/10/01 14:45:13;;;;;;;1.47;1.20;;;;;;;;;;5051928;28;20251;-45
2022/10/01 14:47:39;;;;;;;2.90;1.20;;;;;;;;;;5051986;28;20199;-46
2022/10/01 14:50:10;;;;;;;2.53;1.20;;;;;;;;;;5051272;28;20718;-46
2022/10/01 14:52:40;;;;;;;3.10;1.23;;;;;;;;;;5050883;28;20352;-45
2022/10/01 14:55:11;;;;;;;2.47;1.40;;;;;;;;;;5051481;28;20200;-46
2022/10/01 14:57:38;;;;;;;1.27;0.90;;;;;;;;;;5051637;28;20203;-45
2022/10/01 15:00:10;;;;;;;4.07;1.20;;;;;;;;;;5050754;28;20239;-45
2022/10/01 15:02:43;;;;;;;3.37;1.20;;;;;;;;;;5051680;28;20566;-45
2022/10/01 15:05:17;;;;;;;2.80;1.20;;;;;;;;;;5050470;28;20398;-46